sensor_id;sensor_type;location;lat;lon;timestamp;pressure;altitude;pressure_sealevel;temperature;humidity
85023;BME280;75348;43.126;-2.538;2024-01-15T00:00:03;99221.00;;;10.19;99.60
85023;BME280;75348;43.126;-2.538;2024-01-15T00:02:31;99214.72;;;10.27;99.79
85023;BME280;75348;43.126;-2.538;2024-01-15T00:08:18;99203.97;;;10.21;100.00
85023;BME280;75348;43.126;-2.538;2024-01-15T00:10:50;99203.16;;;10.21;99.58
85023;BME280;75348;43.126;-2.538;2024-01-15T00:13:33;99199.50;;;10.21;99.39
85023;BME280;75348;43.126;-2.538;2024-01-15T00:16:06;99180.97;;;10.14;100.00
85023;BME280;75348;43.126;-2.538;2024-01-15T00:18:33;99188.09;;;10.21;99.90
85023;BME280;75348;43.126;-2.538;2024-01-15T00:21:21;99177.66;;;10.27;99.42
85023;BME280;75348;43.126;-2.538;2024-01-15T00:23:58;99157.66;;;10.01;99.68
85023;BME280;75348;43.126;-2.538;2024-01-15T00:26:31;99161.81;;;9.96;99.46
85023;BME280;75348;43.126;-2.538;2024-01-15T00:29:19;99166.44;;;9.94;100.00
85023;BME280;75348;43.126;-2.538;2024-01-15T00:31:52;99166.75;;;9.99;100.00
85023;BME280;75348;43.126;-2.538;2024-01-15T00:34:24;99157.66;;;10.01;100.00
85023;BME280;75348;43.126;-2.538;2024-01-15T00:36:52;99152.69;;;9.98;100.00
85023;BME280;75348;43.126;-2.538;2024-01-15T00:39:23;99151.69;;;10.07;100.00
85023;BME280;75348;43.126;-2.538;2024-01-15T00:41:56;99143.25;;;10.04;100.00
85023;BME280;75348;43.126;-2.538;2024-01-15T00:44:26;99153.19;;;10.02;100.00
85023;BME280;75348;43.126;-2.538;2024-01-15T00:46:55;99136.78;;;9.90;100.00
85023;BME280;75348;43.126;-2.538;2024-01-15T00:49:29;99142.75;;;9.84;100.00
85023;BME280;75348;43.126;-2.538;2024-01-15T00:51:58;99137.94;;;9.88;100.00
85023;BME280;75348;43.126;-2.538;2024-01-15T00:54:32;99133.31;;;10.06;100.00
85023;BME280;75348;43.126;-2.538;2024-01-15T00:57:14;99132.34;;;10.07;100.00
85023;BME280;75348;43.126;-2.538;2024-01-15T00:59:42;99132.66;;;9.88;100.00
85023;BME280;75348;43.126;-2.538;2024-01-15T01:02:12;99114.78;;;9.58;99.84
85023;BME280;75348;43.126;-2.538;2024-01-15T01:04:45;99127.38;;;9.56;100.00
85023;BME280;75348;43.126;-2.538;2024-01-15T01:07:16;99121.56;;;9.29;99.30
85023;BME280;75348;43.126;-2.538;2024-01-15T01:09:53;99125.69;;;9.31;100.00
85023;BME280;75348;43.126;-2.538;2024-01-15T01:12:22;99123.22;;;9.38;100.00
85023;BME280;75348;43.126;-2.538;2024-01-15T01:14:51;99128.31;;;9.31;100.00
85023;BME280;75348;43.126;-2.538;2024-01-15T01:17:22;99125.38;;;9.42;100.00
85023;BME280;75348;43.126;-2.538;2024-01-15T01:20:08;99127.03;;;9.59;100.00
85023;BME280;75348;43.126;-2.538;2024-01-15T01:23:00;99117.44;;;9.66;100.00
85023;BME280;75348;43.126;-2.538;2024-01-15T01:25:33;99125.88;;;9.77;100.00
85023;BME280;75348;43.126;-2.538;2024-01-15T01:28:24;99132.31;;;9.91;100.00
85023;BME280;75348;43.126;-2.538;2024-01-15T01:30:57;99123.53;;;9.90;100.00
85023;BME280;75348;43.126;-2.538;2024-01-15T01:33:31;99123.38;;;9.84;100.00
85023;BME280;75348;43.126;-2.538;2024-01-15T01:36:13;99119.44;;;9.80;100.00
85023;BME280;75348;43.126;-2.538;2024-01-15T01:39:05;99119.44;;;9.72;100.00
85023;BME280;75348;43.126;-2.538;2024-01-15T01:41:42;99124.06;;;9.54;99.49
85023;BME280;75348;43.126;-2.538;2024-01-15T01:44:15;99124.06;;;9.62;100.00
85023;BME280;75348;43.126;-2.538;2024-01-15T01:46:46;99108.53;;;9.67;100.00
85023;BME280;75348;43.126;-2.538;2024-01-15T01:49:13;99114.28;;;9.86;100.00
85023;BME280;75348;43.126;-2.538;2024-01-15T01:51:41;99102.69;;;9.79;100.00
85023;BME280;75348;43.126;-2.538;2024-01-15T01:54:17;99113.13;;;9.89;100.00
85023;BME280;75348;43.126;-2.538;2024-01-15T01:56:50;99097.59;;;9.86;100.00
85023;BME280;75348;43.126;-2.538;2024-01-15T01:59:20;99085.03;;;9.72;100.00
85023;BME280;75348;43.126;-2.538;2024-01-15T02:01:50;99086.66;;;9.73;100.00
85023;BME280;75348;43.126;-2.538;2024-01-15T02:04:31;99098.59;;;9.77;100.00
85023;BME280;75348;43.126;-2.538;2024-01-15T02:07:09;99094.44;;;9.82;100.00
85023;BME280;75348;43.126;-2.538;2024-01-15T02:09:38;99086.81;;;9.79;100.00
85023;BME280;75348;43.126;-2.538;2024-01-15T02:12:13;99079.59;;;9.66;99.82
85023;BME280;75348;43.126;-2.538;2024-01-15T02:14:42;99083.38;;;9.63;100.00
85023;BME280;75348;43.126;-2.538;2024-01-15T02:17:15;99080.56;;;9.65;100.00
85023;BME280;75348;43.126;-2.538;2024-01-15T02:19:52;99069.50;;;9.69;100.00
85023;BME280;75348;43.126;-2.538;2024-01-15T02:22:34;99065.16;;;9.76;100.00
85023;BME280;75348;43.126;-2.538;2024-01-15T02:25:44;99061.19;;;9.88;100.00
85023;BME280;75348;43.126;-2.538;2024-01-15T02:28:21;99059.53;;;9.87;100.00
85023;BME280;75348;43.126;-2.538;2024-01-15T02:30:58;99072.13;;;9.93;100.00
85023;BME280;75348;43.126;-2.538;2024-01-15T02:33:33;99070.44;;;10.08;99.28
85023;BME280;75348;43.126;-2.538;2024-01-15T02:36:11;99067.47;;;10.03;99.20
85023;BME280;75348;43.126;-2.538;2024-01-15T02:38:48;99061.88;;;9.74;98.89
85023;BME280;75348;43.126;-2.538;2024-01-15T02:41:26;99059.41;;;9.65;100.00
85023;BME280;75348;43.126;-2.538;2024-01-15T02:43:56;99061.56;;;9.61;100.00
85023;BME280;75348;43.126;-2.538;2024-01-15T02:46:26;99060.75;;;9.61;99.98
85023;BME280;75348;43.126;-2.538;2024-01-15T02:49:03;99057.75;;;9.64;100.00
85023;BME280;75348;43.126;-2.538;2024-01-15T02:51:33;99055.94;;;9.64;100.00
85023;BME280;75348;43.126;-2.538;2024-01-15T02:54:05;99056.28;;;9.61;100.00
85023;BME280;75348;43.126;-2.538;2024-01-15T02:56:32;99054.09;;;9.73;100.00
85023;BME280;75348;43.126;-2.538;2024-01-15T02:59:01;99055.94;;;9.72;99.93
85023;BME280;75348;43.126;-2.538;2024-01-15T03:01:34;99056.75;;;9.73;100.00
85023;BME280;75348;43.126;-2.538;2024-01-15T03:04:03;99058.41;;;9.74;100.00
85023;BME280;75348;43.126;-2.538;2024-01-15T03:06:31;99051.78;;;9.70;99.85
85023;BME280;75348;43.126;-2.538;2024-01-15T03:08:59;99052.97;;;9.59;100.00
85023;BME280;75348;43.126;-2.538;2024-01-15T03:12:05;99056.94;;;9.39;99.76
85023;BME280;75348;43.126;-2.538;2024-01-15T03:14:45;99039.75;;;9.35;98.52
85023;BME280;75348;43.126;-2.538;2024-01-15T03:17:14;99040.91;;;9.49;100.00
85023;BME280;75348;43.126;-2.538;2024-01-15T03:20:01;99045.22;;;9.26;98.81
85023;BME280;75348;43.126;-2.538;2024-01-15T03:22:29;99043.72;;;9.31;99.13
85023;BME280;75348;43.126;-2.538;2024-01-15T03:25:06;99048.50;;;9.44;100.00
85023;BME280;75348;43.126;-2.538;2024-01-15T03:27:35;99033.94;;;9.48;99.80
85023;BME280;75348;43.126;-2.538;2024-01-15T03:30:14;99023.31;;;9.87;100.00
85023;BME280;75348;43.126;-2.538;2024-01-15T03:32:41;99017.22;;;9.63;97.40
85023;BME280;75348;43.126;-2.538;2024-01-15T03:35:08;99012.78;;;9.56;99.62
85023;BME280;75348;43.126;-2.538;2024-01-15T03:37:48;99024.53;;;9.53;97.03
85023;BME280;75348;43.126;-2.538;2024-01-15T03:40:21;99015.09;;;9.43;98.23
85023;BME280;75348;43.126;-2.538;2024-01-15T03:42:49;99014.28;;;9.42;100.00
85023;BME280;75348;43.126;-2.538;2024-01-15T03:45:30;99010.84;;;9.18;97.63
85023;BME280;75348;43.126;-2.538;2024-01-15T03:47:57;98992.50;;;9.32;100.00
85023;BME280;75348;43.126;-2.538;2024-01-15T03:50:40;98998.75;;;9.16;99.04
85023;BME280;75348;43.126;-2.538;2024-01-15T03:53:12;99001.09;;;9.19;99.41
85023;BME280;75348;43.126;-2.538;2024-01-15T03:55:40;98991.47;;;9.10;98.64
85023;BME280;75348;43.126;-2.538;2024-01-15T03:58:17;98990.50;;;9.19;99.35
85023;BME280;75348;43.126;-2.538;2024-01-15T04:00:51;98996.44;;;9.13;98.80
85023;BME280;75348;43.126;-2.538;2024-01-15T04:03:28;98992.34;;;9.02;97.22
85023;BME280;75348;43.126;-2.538;2024-01-15T04:06:17;98992.34;;;9.02;98.96
85023;BME280;75348;43.126;-2.538;2024-01-15T04:08:50;98998.75;;;9.00;99.70
85023;BME280;75348;43.126;-2.538;2024-01-15T04:11:40;98974.66;;;8.95;99.08
85023;BME280;75348;43.126;-2.538;2024-01-15T04:14:07;98993.47;;;9.00;99.33
85023;BME280;75348;43.126;-2.538;2024-01-15T04:16:42;98985.22;;;9.19;100.00
85023;BME280;75348;43.126;-2.538;2024-01-15T04:19:14;98978.38;;;9.56;100.00
85023;BME280;75348;43.126;-2.538;2024-01-15T04:21:49;98980.84;;;9.73;100.00
85023;BME280;75348;43.126;-2.538;2024-01-15T04:24:21;98979.91;;;9.42;98.61
85023;BME280;75348;43.126;-2.538;2024-01-15T04:26:48;98971.97;;;9.42;98.45
85023;BME280;75348;43.126;-2.538;2024-01-15T04:29:29;98971.00;;;9.35;99.45
85023;BME280;75348;43.126;-2.538;2024-01-15T04:32:01;98965.34;;;9.54;100.00
85023;BME280;75348;43.126;-2.538;2024-01-15T04:34:28;98954.63;;;9.16;97.77
85023;BME280;75348;43.126;-2.538;2024-01-15T04:37:06;98958.97;;;9.01;99.81
85023;BME280;75348;43.126;-2.538;2024-01-15T04:39:35;98966.88;;;9.17;100.00
85023;BME280;75348;43.126;-2.538;2024-01-15T04:42:05;98955.31;;;9.34;99.87
85023;BME280;75348;43.126;-2.538;2024-01-15T04:44:43;98947.50;;;9.48;99.82
85023;BME280;75348;43.126;-2.538;2024-01-15T04:47:16;98939.56;;;9.56;98.97
85023;BME280;75348;43.126;-2.538;2024-01-15T04:49:54;98936.22;;;9.70;100.00
85023;BME280;75348;43.126;-2.538;2024-01-15T04:52:22;98933.63;;;9.54;98.14
85023;BME280;75348;43.126;-2.538;2024-01-15T04:54:53;98933.84;;;9.29;97.92
85023;BME280;75348;43.126;-2.538;2024-01-15T04:57:31;98943.91;;;9.26;99.10
85023;BME280;75348;43.126;-2.538;2024-01-15T05:00:11;98939.78;;;9.23;99.20
85023;BME280;75348;43.126;-2.538;2024-01-15T05:02:39;98935.63;;;9.36;100.00
85023;BME280;75348;43.126;-2.538;2024-01-15T05:05:21;98935.00;;;9.11;99.77
85023;BME280;75348;43.126;-2.538;2024-01-15T05:07:55;98947.88;;;9.14;100.00
85023;BME280;75348;43.126;-2.538;2024-01-15T05:10:48;98947.91;;;9.06;98.95
85023;BME280;75348;43.126;-2.538;2024-01-15T05:13:16;98952.84;;;9.09;99.66
85023;BME280;75348;43.126;-2.538;2024-01-15T05:15:43;98954.31;;;9.19;99.88
85023;BME280;75348;43.126;-2.538;2024-01-15T05:18:26;98941.56;;;9.30;100.00
85023;BME280;75348;43.126;-2.538;2024-01-15T05:20:56;98935.31;;;9.24;99.73
85023;BME280;75348;43.126;-2.538;2024-01-15T05:23:25;98938.09;;;9.30;99.33
85023;BME280;75348;43.126;-2.538;2024-01-15T05:25:55;98924.69;;;9.47;100.00
85023;BME280;75348;43.126;-2.538;2024-01-15T05:28:23;98930.03;;;9.24;99.11
85023;BME280;75348;43.126;-2.538;2024-01-15T05:30:57;98931.19;;;9.21;99.74
85023;BME280;75348;43.126;-2.538;2024-01-15T05:33:32;98932.31;;;9.42;100.00
85023;BME280;75348;43.126;-2.538;2024-01-15T05:36:00;98934.13;;;9.50;99.64
85023;BME280;75348;43.126;-2.538;2024-01-15T05:38:37;98940.25;;;9.42;99.15
85023;BME280;75348;43.126;-2.538;2024-01-15T05:41:06;98938.91;;;9.38;99.65
85023;BME280;75348;43.126;-2.538;2024-01-15T05:43:36;98936.75;;;9.58;100.00
85023;BME280;75348;43.126;-2.538;2024-01-15T05:46:10;98947.19;;;9.43;100.00
85023;BME280;75348;43.126;-2.538;2024-01-15T05:48:44;98938.44;;;9.27;99.67
85023;BME280;75348;43.126;-2.538;2024-01-15T05:51:38;98938.75;;;9.40;98.38
85023;BME280;75348;43.126;-2.538;2024-01-15T05:54:06;98943.72;;;9.35;98.88
85023;BME280;75348;43.126;-2.538;2024-01-15T05:56:33;98941.25;;;9.18;98.88
85023;BME280;75348;43.126;-2.538;2024-01-15T05:59:17;98944.22;;;9.15;99.89
85023;BME280;75348;43.126;-2.538;2024-01-15T06:01:46;98938.25;;;9.36;100.00
85023;BME280;75348;43.126;-2.538;2024-01-15T06:04:24;98936.91;;;9.56;100.00
85023;BME280;75348;43.126;-2.538;2024-01-15T06:06:56;98927.75;;;9.74;100.00
85023;BME280;75348;43.126;-2.538;2024-01-15T06:09:31;98909.38;;;9.73;100.00
85023;BME280;75348;43.126;-2.538;2024-01-15T06:12:04;98907.28;;;9.69;100.00
85023;BME280;75348;43.126;-2.538;2024-01-15T06:14:34;98917.09;;;9.44;100.00
85023;BME280;75348;43.126;-2.538;2024-01-15T06:17:03;98911.50;;;9.31;98.64
85023;BME280;75348;43.126;-2.538;2024-01-15T06:19:36;98897.63;;;9.30;100.00
85023;BME280;75348;43.126;-2.538;2024-01-15T06:22:18;98904.88;;;9.43;100.00
85023;BME280;75348;43.126;-2.538;2024-01-15T06:24:51;98895.13;;;9.44;100.00
85023;BME280;75348;43.126;-2.538;2024-01-15T06:27:25;98894.97;;;9.37;99.39
85023;BME280;75348;43.126;-2.538;2024-01-15T06:29:59;98888.66;;;9.46;100.00
85023;BME280;75348;43.126;-2.538;2024-01-15T06:32:34;98895.78;;;9.38;100.00
85023;BME280;75348;43.126;-2.538;2024-01-15T06:35:14;98897.97;;;9.19;99.63
85023;BME280;75348;43.126;-2.538;2024-01-15T06:37:49;98903.94;;;9.05;99.44
85023;BME280;75348;43.126;-2.538;2024-01-15T06:40:23;98898.00;;;9.11;100.00
85023;BME280;75348;43.126;-2.538;2024-01-15T06:43:14;98903.94;;;9.13;98.78
85023;BME280;75348;43.126;-2.538;2024-01-15T06:45:48;98906.25;;;9.16;100.00
85023;BME280;75348;43.126;-2.538;2024-01-15T06:48:37;98903.56;;;9.31;99.32
85023;BME280;75348;43.126;-2.538;2024-01-15T06:51:24;98909.22;;;9.21;99.09
85023;BME280;75348;43.126;-2.538;2024-01-15T06:53:51;98908.56;;;9.11;99.46
85023;BME280;75348;43.126;-2.538;2024-01-15T06:56:18;98911.53;;;9.00;99.10
85023;BME280;75348;43.126;-2.538;2024-01-15T06:58:59;98918.81;;;8.98;99.74
85023;BME280;75348;43.126;-2.538;2024-01-15T07:01:27;98918.50;;;8.93;99.21
85023;BME280;75348;43.126;-2.538;2024-01-15T07:03:59;98915.53;;;9.12;100.00
85023;BME280;75348;43.126;-2.538;2024-01-15T07:06:29;98926.72;;;9.22;100.00
85023;BME280;75348;43.126;-2.538;2024-01-15T07:08:58;98908.34;;;9.36;100.00
85023;BME280;75348;43.126;-2.538;2024-01-15T07:11:48;98912.47;;;9.54;100.00
85023;BME280;75348;43.126;-2.538;2024-01-15T07:14:17;98905.50;;;9.53;100.00
85023;BME280;75348;43.126;-2.538;2024-01-15T07:16:54;98919.72;;;9.52;100.00
85023;BME280;75348;43.126;-2.538;2024-01-15T07:19:29;98914.78;;;9.41;100.00
85023;BME280;75348;43.126;-2.538;2024-01-15T07:22:00;98917.59;;;9.40;100.00
85023;BME280;75348;43.126;-2.538;2024-01-15T07:24:45;98913.47;;;9.45;100.00
85023;BME280;75348;43.126;-2.538;2024-01-15T07:27:27;98917.41;;;9.49;100.00
85023;BME280;75348;43.126;-2.538;2024-01-15T07:29:58;98918.09;;;9.51;100.00
85023;BME280;75348;43.126;-2.538;2024-01-15T07:32:32;98911.63;;;9.54;100.00
85023;BME280;75348;43.126;-2.538;2024-01-15T07:35:04;98907.00;;;9.48;100.00
85023;BME280;75348;43.126;-2.538;2024-01-15T07:37:32;98908.94;;;9.62;100.00
85023;BME280;75348;43.126;-2.538;2024-01-15T07:40:07;98915.53;;;9.74;100.00
85023;BME280;75348;43.126;-2.538;2024-01-15T07:43:24;98892.31;;;9.83;100.00
85023;BME280;75348;43.126;-2.538;2024-01-15T07:46:11;98894.31;;;9.81;100.00
85023;BME280;75348;43.126;-2.538;2024-01-15T07:48:39;98892.66;;;9.80;100.00
85023;BME280;75348;43.126;-2.538;2024-01-15T07:51:10;98897.19;;;9.72;100.00
85023;BME280;75348;43.126;-2.538;2024-01-15T07:53:38;98901.44;;;9.73;100.00
85023;BME280;75348;43.126;-2.538;2024-01-15T07:56:07;98893.50;;;9.73;100.00
85023;BME280;75348;43.126;-2.538;2024-01-15T07:58:37;98896.81;;;9.83;100.00
85023;BME280;75348;43.126;-2.538;2024-01-15T08:01:11;98889.50;;;9.85;100.00
85023;BME280;75348;43.126;-2.538;2024-01-15T08:03:51;98895.16;;;9.82;99.99
85023;BME280;75348;43.126;-2.538;2024-01-15T08:06:25;98893.47;;;9.81;100.00
85023;BME280;75348;43.126;-2.538;2024-01-15T08:09:04;98895.16;;;9.82;100.00
85023;BME280;75348;43.126;-2.538;2024-01-15T08:11:31;98889.22;;;9.80;100.00
85023;BME280;75348;43.126;-2.538;2024-01-15T08:13:58;98883.75;;;9.81;100.00
85023;BME280;75348;43.126;-2.538;2024-01-15T08:16:28;98879.25;;;9.82;100.00
85023;BME280;75348;43.126;-2.538;2024-01-15T08:19:11;98886.22;;;9.83;100.00
85023;BME280;75348;43.126;-2.538;2024-01-15T08:21:39;98886.47;;;10.04;100.00
85023;BME280;75348;43.126;-2.538;2024-01-15T08:24:14;98889.25;;;10.10;99.01
85023;BME280;75348;43.126;-2.538;2024-01-15T08:26:55;98893.09;;;10.00;99.09
85023;BME280;75348;43.126;-2.538;2024-01-15T08:29:37;98904.53;;;10.00;99.80
85023;BME280;75348;43.126;-2.538;2024-01-15T08:32:06;98908.28;;;10.06;99.43
85023;BME280;75348;43.126;-2.538;2024-01-15T08:34:51;98910.25;;;10.12;98.87
85023;BME280;75348;43.126;-2.538;2024-01-15T08:37:43;98917.13;;;10.28;98.95
85023;BME280;75348;43.126;-2.538;2024-01-15T08:40:08;98919.91;;;10.35;98.68
85023;BME280;75348;43.126;-2.538;2024-01-15T08:42:43;98931.25;;;10.43;98.31
85023;BME280;75348;43.126;-2.538;2024-01-15T08:45:20;98931.63;;;10.40;98.53
85023;BME280;75348;43.126;-2.538;2024-01-15T08:47:49;98923.66;;;10.40;98.29
85023;BME280;75348;43.126;-2.538;2024-01-15T08:50:19;98920.03;;;10.41;98.87
85023;BME280;75348;43.126;-2.538;2024-01-15T08:52:47;98915.38;;;10.43;98.46
85023;BME280;75348;43.126;-2.538;2024-01-15T08:55:15;98907.66;;;10.56;98.98
85023;BME280;75348;43.126;-2.538;2024-01-15T08:57:44;98899.47;;;10.88;97.33
85023;BME280;75348;43.126;-2.538;2024-01-15T09:00:12;98912.28;;;11.35;95.52
85023;BME280;75348;43.126;-2.538;2024-01-15T09:03:02;98911.44;;;11.57;94.24
85023;BME280;75348;43.126;-2.538;2024-01-15T09:05:40;98904.38;;;11.93;92.12
85023;BME280;75348;43.126;-2.538;2024-01-15T09:08:08;98906.47;;;12.11;91.42
85023;BME280;75348;43.126;-2.538;2024-01-15T09:10:36;98906.25;;;12.13;91.01
85023;BME280;75348;43.126;-2.538;2024-01-15T09:13:10;98899.41;;;12.04;91.43
85023;BME280;75348;43.126;-2.538;2024-01-15T09:15:43;98908.69;;;11.65;93.45
85023;BME280;75348;43.126;-2.538;2024-01-15T09:18:13;98901.34;;;11.67;94.78
85023;BME280;75348;43.126;-2.538;2024-01-15T09:20:55;98908.09;;;12.12;93.50
85023;BME280;75348;43.126;-2.538;2024-01-15T09:23:24;98905.03;;;12.30;92.81
85023;BME280;75348;43.126;-2.538;2024-01-15T09:25:58;98908.19;;;12.04;94.22
85023;BME280;75348;43.126;-2.538;2024-01-15T09:28:38;98917.09;;;11.83;95.78
85023;BME280;75348;43.126;-2.538;2024-01-15T09:31:05;98910.41;;;12.01;94.37
85023;BME280;75348;43.126;-2.538;2024-01-15T09:33:35;98918.81;;;12.04;95.50
85023;BME280;75348;43.126;-2.538;2024-01-15T09:36:08;98919.66;;;11.91;95.29
85023;BME280;75348;43.126;-2.538;2024-01-15T09:38:41;98927.88;;;11.96;93.70
85023;BME280;75348;43.126;-2.538;2024-01-15T09:41:10;98929.19;;;11.99;94.71
85023;BME280;75348;43.126;-2.538;2024-01-15T09:43:58;98919.28;;;12.08;93.85
85023;BME280;75348;43.126;-2.538;2024-01-15T09:46:27;98915.00;;;12.07;94.32
85023;BME280;75348;43.126;-2.538;2024-01-15T09:49:18;98924.03;;;12.12;93.92
85023;BME280;75348;43.126;-2.538;2024-01-15T09:52:04;98928.63;;;12.18;93.92
85023;BME280;75348;43.126;-2.538;2024-01-15T09:54:46;98935.19;;;12.22;94.10
85023;BME280;75348;43.126;-2.538;2024-01-15T09:57:16;98935.59;;;12.19;94.22
85023;BME280;75348;43.126;-2.538;2024-01-15T09:59:47;98944.81;;;12.23;94.50
85023;BME280;75348;43.126;-2.538;2024-01-15T10:02:15;98947.47;;;12.23;93.92
85023;BME280;75348;43.126;-2.538;2024-01-15T10:04:57;98960.50;;;12.18;93.61
85023;BME280;75348;43.126;-2.538;2024-01-15T10:07:28;98956.28;;;12.09;94.93
85023;BME280;75348;43.126;-2.538;2024-01-15T10:10:18;98953.72;;;12.01;96.04
85023;BME280;75348;43.126;-2.538;2024-01-15T10:12:46;98942.19;;;11.95;97.20
85023;BME280;75348;43.126;-2.538;2024-01-15T10:15:15;98941.81;;;11.98;96.05
85023;BME280;75348;43.126;-2.538;2024-01-15T10:17:57;98949.44;;;12.00;97.16
85023;BME280;75348;43.126;-2.538;2024-01-15T10:20:50;98954.56;;;12.02;96.73
85023;BME280;75348;43.126;-2.538;2024-01-15T10:23:17;98958.84;;;12.17;96.92
85023;BME280;75348;43.126;-2.538;2024-01-15T10:25:51;98974.84;;;12.24;95.24
85023;BME280;75348;43.126;-2.538;2024-01-15T10:28:22;98987.97;;;12.25;94.79
85023;BME280;75348;43.126;-2.538;2024-01-15T10:30:57;99006.38;;;12.27;95.96
85023;BME280;75348;43.126;-2.538;2024-01-15T10:33:31;99045.50;;;12.18;96.01
85023;BME280;75348;43.126;-2.538;2024-01-15T10:36:03;99090.31;;;12.21;95.67
85023;BME280;75348;43.126;-2.538;2024-01-15T10:38:37;99112.19;;;12.23;96.41
85023;BME280;75348;43.126;-2.538;2024-01-15T10:41:12;99130.16;;;12.21;96.92
85023;BME280;75348;43.126;-2.538;2024-01-15T10:43:46;99133.06;;;12.12;97.95
85023;BME280;75348;43.126;-2.538;2024-01-15T10:46:16;99137.44;;;12.05;98.13
85023;BME280;75348;43.126;-2.538;2024-01-15T10:48:50;99137.16;;;12.00;98.75
85023;BME280;75348;43.126;-2.538;2024-01-15T10:51:18;99119.47;;;11.93;99.47
85023;BME280;75348;43.126;-2.538;2024-01-15T10:53:56;99116.75;;;12.00;99.23
85023;BME280;75348;43.126;-2.538;2024-01-15T10:56:47;99105.63;;;11.97;99.66
85023;BME280;75348;43.126;-2.538;2024-01-15T10:59:34;99103.56;;;11.93;100.00
85023;BME280;75348;43.126;-2.538;2024-01-15T11:02:04;99100.34;;;11.97;100.00
85023;BME280;75348;43.126;-2.538;2024-01-15T11:04:45;99092.53;;;11.96;100.00
85023;BME280;75348;43.126;-2.538;2024-01-15T11:07:15;99089.59;;;11.91;100.00
85023;BME280;75348;43.126;-2.538;2024-01-15T11:10:46;99083.41;;;11.98;100.00
85023;BME280;75348;43.126;-2.538;2024-01-15T11:13:48;99082.88;;;12.02;100.00
85023;BME280;75348;43.126;-2.538;2024-01-15T11:16:19;99092.09;;;12.06;100.00
85023;BME280;75348;43.126;-2.538;2024-01-15T11:19:18;99093.59;;;12.09;100.00
85023;BME280;75348;43.126;-2.538;2024-01-15T11:21:46;99084.63;;;12.10;99.89
85023;BME280;75348;43.126;-2.538;2024-01-15T11:27:45;99084.44;;;12.11;99.88
85023;BME280;75348;43.126;-2.538;2024-01-15T11:30:25;99083.41;;;12.12;99.54
85023;BME280;75348;43.126;-2.538;2024-01-15T11:32:56;99085.09;;;12.13;98.99
85023;BME280;75348;43.126;-2.538;2024-01-15T11:35:49;99092.88;;;12.15;99.52
85023;BME280;75348;43.126;-2.538;2024-01-15T11:38:29;99093.69;;;12.15;99.78
85023;BME280;75348;43.126;-2.538;2024-01-15T11:40:58;99089.19;;;12.16;99.85
85023;BME280;75348;43.126;-2.538;2024-01-15T11:43:29;99088.44;;;12.07;100.00
85023;BME280;75348;43.126;-2.538;2024-01-15T11:46:01;99086.50;;;12.01;100.00
85023;BME280;75348;43.126;-2.538;2024-01-15T11:48:57;99088.81;;;12.04;100.00
85023;BME280;75348;43.126;-2.538;2024-01-15T11:51:42;99090.13;;;12.08;100.00
85023;BME280;75348;43.126;-2.538;2024-01-15T11:54:26;99082.78;;;12.10;100.00
85023;BME280;75348;43.126;-2.538;2024-01-15T11:57:09;99073.44;;;12.14;100.00
85023;BME280;75348;43.126;-2.538;2024-01-15T11:59:44;99070.50;;;12.09;100.00
85023;BME280;75348;43.126;-2.538;2024-01-15T12:02:17;99065.19;;;12.09;100.00
85023;BME280;75348;43.126;-2.538;2024-01-15T12:04:57;99040.91;;;12.12;100.00
85023;BME280;75348;43.126;-2.538;2024-01-15T12:07:48;99022.22;;;12.20;100.00
85023;BME280;75348;43.126;-2.538;2024-01-15T12:10:30;99006.75;;;12.24;100.00
85023;BME280;75348;43.126;-2.538;2024-01-15T12:13:09;99013.44;;;12.34;100.00
85023;BME280;75348;43.126;-2.538;2024-01-15T12:16:12;99010.31;;;12.45;100.00
85023;BME280;75348;43.126;-2.538;2024-01-15T12:19:06;99010.09;;;12.61;99.71
85023;BME280;75348;43.126;-2.538;2024-01-15T12:21:39;98999.25;;;12.77;100.00
85023;BME280;75348;43.126;-2.538;2024-01-15T12:24:14;98987.59;;;12.78;99.38
85023;BME280;75348;43.126;-2.538;2024-01-15T12:26:55;98975.88;;;12.72;99.35
85023;BME280;75348;43.126;-2.538;2024-01-15T12:29:25;98973.75;;;12.82;99.75
85023;BME280;75348;43.126;-2.538;2024-01-15T12:32:00;98968.19;;;12.98;99.83
85023;BME280;75348;43.126;-2.538;2024-01-15T12:34:34;98962.31;;;13.02;100.00
85023;BME280;75348;43.126;-2.538;2024-01-15T12:37:15;98963.75;;;13.26;98.80
85023;BME280;75348;43.126;-2.538;2024-01-15T12:39:43;98964.44;;;13.34;97.89
85023;BME280;75348;43.126;-2.538;2024-01-15T12:42:18;98955.81;;;13.32;97.35
85023;BME280;75348;43.126;-2.538;2024-01-15T12:44:57;98948.16;;;13.23;97.28
85023;BME280;75348;43.126;-2.538;2024-01-15T12:47:34;98949.88;;;13.30;98.74
85023;BME280;75348;43.126;-2.538;2024-01-15T12:50:15;98962.72;;;13.47;97.13
85023;BME280;75348;43.126;-2.538;2024-01-15T12:52:47;98949.22;;;13.49;98.51
85023;BME280;75348;43.126;-2.538;2024-01-15T12:55:23;98949.97;;;13.43;98.25
85023;BME280;75348;43.126;-2.538;2024-01-15T12:57:56;98953.69;;;13.48;98.30
85023;BME280;75348;43.126;-2.538;2024-01-15T13:00:25;98938.28;;;13.65;99.13
85023;BME280;75348;43.126;-2.538;2024-01-15T13:02:54;98937.28;;;13.72;98.51
85023;BME280;75348;43.126;-2.538;2024-01-15T13:05:50;98941.06;;;13.84;97.59
85023;BME280;75348;43.126;-2.538;2024-01-15T13:08:19;98935.53;;;13.85;98.70
85023;BME280;75348;43.126;-2.538;2024-01-15T13:11:00;98922.75;;;14.08;97.88
85023;BME280;75348;43.126;-2.538;2024-01-15T13:13:27;98927.50;;;14.13;98.11
85023;BME280;75348;43.126;-2.538;2024-01-15T13:16:07;98920.53;;;14.12;97.94
85023;BME280;75348;43.126;-2.538;2024-01-15T13:18:35;98916.72;;;13.93;98.67
85023;BME280;75348;43.126;-2.538;2024-01-15T13:21:10;98923.81;;;14.07;99.24
85023;BME280;75348;43.126;-2.538;2024-01-15T13:23:41;98921.84;;;14.28;97.67
85023;BME280;75348;43.126;-2.538;2024-01-15T13:26:14;98917.81;;;14.52;98.74
85023;BME280;75348;43.126;-2.538;2024-01-15T13:28:44;98913.09;;;14.54;96.02
85023;BME280;75348;43.126;-2.538;2024-01-15T13:31:12;98912.91;;;14.55;95.97
85023;BME280;75348;43.126;-2.538;2024-01-15T13:33:39;98918.22;;;14.49;95.77
85023;BME280;75348;43.126;-2.538;2024-01-15T13:36:17;98910.63;;;14.46;96.61
85023;BME280;75348;43.126;-2.538;2024-01-15T13:38:54;98918.41;;;14.41;97.94